
Distance (Route):
Temperature : 25.9°C
Humidity : 24.5%
Pressure : 0hPa| Receiver | Date | Latitude | Longitude | Direction | Speed | Altitude | Climb | Temperature | Humidity | Pressure | Voltage | Killtimer | Uptime | BKT | XDATA |
|---|---|---|---|---|---|---|---|---|---|---|---|---|---|---|---|
| LZ4TU-5 | 2026-09-02 18:59:06 | 44.30954 | 23.42569 | 203° | 35km/h | 614m | -13.7m/s | 25.9°C | 24.5% | 0hPa | 0V | 00:00:00 | 00:00:00 | 00:00:00 | |
| LZ4TU-5 | 2026-09-02 18:59:02 | 44.30985 | 23.42589 | 208° | 31km/h | 671m | -13.7m/s | 25.7°C | 23.2% | 0hPa | 0V | 00:00:00 | 00:00:00 | 00:00:00 | |
| LZ4TU-5 | 2026-09-02 18:58:57 | 44.31018 | 23.42613 | 212° | 27km/h | 743m | -13.8m/s | 25.3°C | 23.4% | 0hPa | 0V | 00:00:00 | 00:00:00 | 00:00:00 | |
| LZ4TU-5 | 2026-09-02 18:58:47 | 44.31073 | 23.42662 | 219° | 22km/h | 877m | -14.0m/s | 24.0°C | 26.5% | 0hPa | 0V | 00:00:00 | 00:00:00 | 00:00:00 | |
| LZ4TU-5 | 2026-09-02 18:58:43 | 44.31089 | 23.42681 | 221° | 18km/h | 935m | -14.1m/s | 23.5°C | 28.0% | 0hPa | 0V | 00:00:00 | 00:00:00 | 00:00:00 | |
| LZ4TU-5 | 2026-09-02 18:58:39 | 44.31102 | 23.42697 | 223° | 16km/h | 995m | -14.1m/s | 23.0°C | 29.6% | 0hPa | 0V | 00:00:00 | 00:00:00 | 00:00:00 | |
| LZ4TU-5 | 2026-09-02 18:58:35 | 44.31114 | 23.42712 | 228° | 13km/h | 1056m | -14.4m/s | 22.6°C | 30.0% | 0hPa | 0V | 00:00:00 | 00:00:00 | 00:00:00 | |
| LZ4TU-5 | 2026-09-02 18:58:30 | 44.31123 | 23.42728 | 229° | 9km/h | 1132m | -14.4m/s | 22.0°C | 30.4% | 0hPa | 0V | 00:00:00 | 00:00:00 | 00:00:00 | |
| LZ4TU-5 | 2026-09-02 18:58:26 | 44.31131 | 23.42737 | 235° | 9km/h | 1193m | -14.2m/s | 21.6°C | 30.6% | 0hPa | 0V | 00:00:00 | 00:00:00 | 00:00:00 | |
| LZ4TU-5 | 2026-09-02 18:58:21 | 44.31135 | 23.42752 | 247° | 7km/h | 1265m | -14.3m/s | 21.0°C | 30.8% | 0hPa | 0V | 00:00:00 | 00:00:00 | 00:00:00 | |
| LZ4TU-5 | 2026-09-02 18:58:16 | 44.31138 | 23.42759 | 264° | 5km/h | 1336m | -14.8m/s | 20.4°C | 31.3% | 0hPa | 0V | 00:00:00 | 00:00:00 | 00:00:00 | |
| LZ4TU-5 | 2026-09-02 18:58:12 | 44.31138 | 23.42766 | 262° | 4km/h | 1398m | -14.6m/s | 19.8°C | 31.9% | 0hPa | 0V | 00:00:00 | 00:00:00 | 00:00:00 | |
| LZ4TU-5 | 2026-09-02 18:58:07 | 44.31139 | 23.42774 | 261° | 4km/h | 1477m | -15.0m/s | 19.1°C | 32.7% | 0hPa | 0V | 00:00:00 | 00:00:00 | 00:00:00 | |
| LZ4TU-5 | 2026-09-02 18:58:03 | 44.31140 | 23.42779 | 259° | 4km/h | 1540m | -14.8m/s | 18.6°C | 33.4% | 0hPa | 0V | 00:00:00 | 00:00:00 | 00:00:00 | |
| LZ4TU-5 | 2026-09-02 18:57:58 | 44.31140 | 23.42788 | 275° | 4km/h | 1608m | -14.6m/s | 17.9°C | 34.3% | 0hPa | 0V | 00:00:00 | 00:00:00 | 00:00:00 | |
| LZ4TU-5 | 2026-09-02 18:57:54 | 44.31140 | 23.42793 | 264° | 2km/h | 1667m | -14.6m/s | 17.3°C | 35.2% | 0hPa | 0V | 00:00:00 | 00:00:00 | 00:00:00 | |
| LZ4TU-5 | 2026-09-02 18:57:49 | 44.31141 | 23.42795 | 0° | 0km/h | 1740m | -14.6m/s | 16.7°C | 36.3% | 0hPa | 0V | 00:00:00 | 00:00:00 | 00:00:00 | |
| LZ4TU-5 | 2026-09-02 18:57:45 | 44.31140 | 23.42796 | 0° | 0km/h | 1794m | -14.4m/s | 16.1°C | 37.0% | 0hPa | 0V | 00:00:00 | 00:00:00 | 00:00:00 | |
| LZ4TU-5 | 2026-09-02 18:57:41 | 44.31142 | 23.42797 | 0° | 0km/h | 1839m | -14.9m/s | 15.5°C | 37.7% | 0hPa | 0V | 00:00:00 | 00:00:00 | 00:00:00 | |
| LZ4TU-5 | 2026-09-02 18:57:36 | 44.31144 | 23.42800 | 0° | 0km/h | 1916m | -14.9m/s | 14.8°C | 38.4% | 0hPa | 0V | 00:00:00 | 00:00:00 | 00:00:00 | |
| LZ4TU-5 | 2026-09-02 18:57:31 | 44.31142 | 23.42802 | 0° | 0km/h | 1988m | -15.0m/s | 14.2°C | 38.7% | 0hPa | 0V | 00:00:00 | 00:00:00 | 00:00:00 | |
| LZ4TU-5 | 2026-09-02 18:57:26 | 44.31144 | 23.42802 | 136° | 4km/h | 2059m | -15.2m/s | 13.8°C | 35.3% | 0hPa | 0V | 00:00:00 | 00:00:00 | 00:00:00 | |
| LZ4TU-5 | 2026-09-02 18:57:21 | 44.31148 | 23.42794 | 123° | 7km/h | 2137m | -15.0m/s | 13.2°C | 32.0% | 0hPa | 0V | 00:00:00 | 00:00:00 | 00:00:00 | |
| LZ4TU-5 | 2026-09-02 18:57:17 | 44.31153 | 23.42784 | 128° | 11km/h | 2199m | -14.9m/s | 12.7°C | 31.0% | 0hPa | 0V | 00:00:00 | 00:00:00 | 00:00:00 | |
| LZ4TU-5 | 2026-09-02 18:57:13 | 44.31162 | 23.42770 | 134° | 16km/h | 2261m | -15.0m/s | 12.7°C | 29.9% | 0hPa | 0V | 00:00:00 | 00:00:00 | 00:00:00 | |
| LZ4TU-5 | 2026-09-02 18:57:08 | 44.31179 | 23.42747 | 136° | 20km/h | 2336m | -15.2m/s | 12.3°C | 27.8% | 0hPa | 0V | 00:00:00 | 00:00:00 | 00:00:00 | |
| LZ4TU-5 | 2026-09-02 18:57:03 | 44.31198 | 23.42719 | 140° | 24km/h | 2404m | -15.3m/s | 11.7°C | 28.6% | 0hPa | 0V | 00:00:00 | 00:00:00 | 00:00:00 | |
| LZ4TU-5 | 2026-09-02 18:56:59 | 44.31217 | 23.42696 | 141° | 27km/h | 2468m | -15.3m/s | 11.1°C | 29.8% | 0hPa | 0V | 00:00:00 | 00:00:00 | 00:00:00 | |
| LZ4TU-5 | 2026-09-02 18:56:54 | 44.31243 | 23.42664 | 141° | 29km/h | 2547m | -15.3m/s | 10.5°C | 31.4% | 0hPa | 0V | 00:00:00 | 00:00:00 | 00:00:00 | |
| LZ4TU-5 | 2026-09-02 18:56:50 | 44.31266 | 23.42640 | 142° | 27km/h | 2611m | -15.5m/s | 9.9°C | 32.2% | 0hPa | 0V | 00:00:00 | 00:00:00 | 00:00:00 | |
| LZ4TU-5 | 2026-09-02 18:56:45 | 44.31292 | 23.42611 | 142° | 27km/h | 2689m | -15.4m/s | 9.2°C | 33.1% | 0hPa | 0V | 00:00:00 | 00:00:00 | 00:00:00 | |
| LZ4TU-5 | 2026-09-02 18:56:40 | 44.31318 | 23.42580 | 141° | 26km/h | 2757m | -15.6m/s | 8.4°C | 33.3% | 0hPa | 0V | 00:00:00 | 00:00:00 | 00:00:00 | |
| LZ4TU-5 | 2026-09-02 18:56:35 | 44.31342 | 23.42551 | 137° | 24km/h | 2837m | -15.2m/s | 7.7°C | 33.1% | 0hPa | 0V | 00:00:00 | 00:00:00 | 00:00:00 | |
| LZ4TU-5 | 2026-09-02 18:56:26 | 44.31377 | 23.42496 | 126° | 24km/h | 2979m | -14.8m/s | 6.7°C | 25.7% | 0hPa | 0V | 00:00:00 | 00:00:00 | 00:00:00 | |
| LZ4TU-5 | 2026-09-02 18:56:21 | 44.31394 | 23.42462 | 124° | 24km/h | 3058m | -15.3m/s | 6.2°C | 22.3% | 0hPa | 0V | 00:00:00 | 00:00:00 | 00:00:00 | |
| LZ4TU-5 | 2026-09-02 18:56:17 | 44.31407 | 23.42432 | 121° | 24km/h | 3122m | -15.0m/s | 5.8°C | 20.7% | 0hPa | 0V | 00:00:00 | 00:00:00 | 00:00:00 | |
| LZ4TU-5 | 2026-09-02 18:56:12 | 44.31423 | 23.42394 | 117° | 24km/h | 3198m | -15.1m/s | 5.2°C | 20.0% | 0hPa | 0V | 00:00:00 | 00:00:00 | 00:00:00 | |
| LZ4TU-5 | 2026-09-02 18:56:08 | 44.31434 | 23.42364 | 114° | 24km/h | 3257m | -15.3m/s | 4.7°C | 19.9% | 0hPa | 0V | 00:00:00 | 00:00:00 | 00:00:00 | |
| LZ4TU-5 | 2026-09-02 18:56:03 | 44.31445 | 23.42327 | 116° | 22km/h | 3336m | -15.2m/s | 4.1°C | 19.9% | 0hPa | 0V | 00:00:00 | 00:00:00 | 00:00:00 | |
| LZ4TU-5 | 2026-09-02 18:55:58 | 44.31457 | 23.42294 | 117° | 20km/h | 3414m | -15.1m/s | 3.4°C | 20.9% | 0hPa | 0V | 00:00:00 | 00:00:00 | 00:00:00 | |
| LZ4TU-5 | 2026-09-02 18:55:53 | 44.31465 | 23.42271 | 121° | 18km/h | 3483m | -15.2m/s | 2.8°C | 22.4% | 0hPa | 0V | 00:00:00 | 00:00:00 | 00:00:00 | |
| LZ4TU-5 | 2026-09-02 18:55:48 | 44.31479 | 23.42238 | 123° | 18km/h | 3555m | -15.3m/s | 2.2°C | 25.1% | 0hPa | 0V | 00:00:00 | 00:00:00 | 00:00:00 | |
| LZ4TU-5 | 2026-09-02 18:55:43 | 44.31490 | 23.42209 | 118° | 16km/h | 3633m | -15.2m/s | 1.6°C | 25.9% | 0hPa | 0V | 00:00:00 | 00:00:00 | 00:00:00 | |
| LZ4TU-5 | 2026-09-02 18:55:38 | 44.31500 | 23.42182 | 112° | 15km/h | 3712m | -15.4m/s | 1.0°C | 27.6% | 0hPa | 0V | 00:00:00 | 00:00:00 | 00:00:00 | |
| LZ4TU-5 | 2026-09-02 18:55:33 | 44.31506 | 23.42155 | 100° | 13km/h | 3790m | -15.2m/s | 0.3°C | 29.2% | 0hPa | 0V | 00:00:00 | 00:00:00 | 00:00:00 | |
| LZ4TU-5 | 2026-09-02 18:55:29 | 44.31508 | 23.42135 | 94° | 15km/h | 3853m | -15.3m/s | -0.1°C | 28.6% | 0hPa | 0V | 00:00:00 | 00:00:00 | 00:00:00 | |
| LZ4TU-5 | 2026-09-02 18:55:24 | 44.31507 | 23.42110 | 86° | 18km/h | 3922m | -15.8m/s | -0.4°C | 36.1% | 0hPa | 0V | 00:00:00 | 00:00:00 | 00:00:00 | |
| LZ4TU-5 | 2026-09-02 18:53:31 | 44.31540 | 23.40514 | 95° | 49km/h | 5646m | -14.6m/s | -10.7°C | 24.4% | 0hPa | 0V | 00:00:00 | 00:00:00 | 00:00:00 | |
| LZ4TU-5 | 2026-09-02 18:53:26 | 44.31546 | 23.40427 | 96° | 49km/h | 5719m | -15.0m/s | -11.3°C | 0% | 0hPa | 0V | 00:00:00 | 00:00:00 | 00:00:00 | |
| LZ4TU-5 | 2026-09-02 18:52:18 | 44.31586 | 23.39163 | 96° | 57km/h | 6739m | -15.4m/s | -19.5°C | 42.7% | 0hPa | 0V | 00:00:00 | 00:00:00 | 00:00:00 | |
| LZ4TU-5 | 2026-09-02 18:52:13 | 44.31593 | 23.39060 | 96° | 60km/h | 6818m | -15.0m/s | -20.1°C | 41.9% | 0hPa | 0V | 00:00:00 | 00:00:00 | 00:00:00 | |
| OM5KV | 2026-09-02 18:37:14 | 44.29153 | 23.24436 | 174° | 27km/h | 30532m | 6.3m/s | -40.8°C | 0.0% | 0hPa | 0V | 00:00:00 | 00:00:00 | 00:00:00 | |
| OM5KV | 2026-09-02 18:37:10 | 44.29175 | 23.24446 | 240° | 22km/h | 30503m | 7.3m/s | -40.8°C | 0.0% | 0hPa | 0V | 00:00:00 | 00:00:00 | 00:00:00 | |
| OM5KV | 2026-09-02 18:37:08 | 44.29180 | 23.24456 | 216° | 11km/h | 30488m | 7.5m/s | -40.9°C | 0.0% | 0hPa | 0V | 00:00:00 | 00:00:00 | 00:00:00 | |
| OM5KV | 2026-09-02 18:37:06 | 44.29184 | 23.24456 | 136° | 7km/h | 30473m | 8.0m/s | -40.9°C | 0.0% | 0hPa | 0V | 00:00:00 | 00:00:00 | 00:00:00 | |
| OM5KV | 2026-09-02 18:37:05 | 44.29185 | 23.24454 | 143° | 5km/h | 30465m | 8.3m/s | -40.9°C | 0.0% | 0hPa | 0V | 00:00:00 | 00:00:00 | 00:00:00 | |
| OM5KV | 2026-09-02 18:37:03 | 44.29188 | 23.24454 | 194° | 11km/h | 30452m | 6.0m/s | -41.1°C | 0.0% | 0hPa | 0V | 00:00:00 | 00:00:00 | 00:00:00 | |
| OM5KV | 2026-09-02 18:36:59 | 44.29209 | 23.24454 | 186° | 24km/h | 30424m | 5.2m/s | -41.6°C | 0.0% | 0hPa | 0V | 00:00:00 | 00:00:00 | 00:00:00 | |
| OM5KV | 2026-09-02 18:36:53 | 44.29220 | 23.24469 | 175° | 9km/h | 30382m | 8.2m/s | -41.8°C | 0.0% | 0hPa | 0V | 00:00:00 | 00:00:00 | 00:00:00 | |
| OM5KV | 2026-09-02 18:36:51 | 44.29230 | 23.24463 | 155° | 33km/h | 30368m | 5.8m/s | -41.9°C | 0.0% | 0hPa | 0V | 00:00:00 | 00:00:00 | 00:00:00 | |
| OM5KV | 2026-09-02 18:36:47 | 44.29252 | 23.24458 | 228° | 9km/h | 30339m | 7.1m/s | -42.0°C | 0.0% | 0hPa | 0V | 00:00:00 | 00:00:00 | 00:00:00 | |
| OM5KV | 2026-09-02 18:36:46 | 44.29253 | 23.24460 | 266° | 5km/h | 30332m | 7.4m/s | -42.0°C | 0.0% | 0hPa | 0V | 00:00:00 | 00:00:00 | 00:00:00 | |
| OM5KV | 2026-09-02 18:36:41 | 44.29256 | 23.24457 | 143° | 9km/h | 30293m | 8.3m/s | -42.3°C | 0.0% | 0hPa | 0V | 00:00:00 | 00:00:00 | 00:00:00 | |
| OM5KV | 2026-09-02 18:36:35 | 44.29264 | 23.24450 | 141° | 5km/h | 30247m | 7.2m/s | -42.5°C | 0.0% | 0hPa | 0V | 00:00:00 | 00:00:00 | 00:00:00 | |
| OM5KV | 2026-09-02 18:36:24 | 44.29244 | 23.24412 | 8° | 20km/h | 30168m | 7.5m/s | -42.4°C | 0.0% | 0hPa | 0V | 00:00:00 | 00:00:00 | 00:00:00 | |
| OM5KV | 2026-09-02 18:36:19 | 44.29242 | 23.24427 | 251° | 20km/h | 30128m | 7.9m/s | -42.5°C | 0.0% | 0hPa | 0V | 00:00:00 | 00:00:00 | 00:00:00 | |
| OM5KV | 2026-09-02 18:36:18 | 44.29245 | 23.24432 | 236° | 16km/h | 30121m | 6.6m/s | -42.5°C | 0.0% | 0hPa | 0V | 00:00:00 | 00:00:00 | 00:00:00 | |
| OM5KV | 2026-09-02 18:36:13 | 44.29239 | 23.24428 | 342° | 20km/h | 30081m | 8.3m/s | -42.5°C | 0.0% | 0hPa | 0V | 00:00:00 | 00:00:00 | 00:00:00 | |
| OM5KV | 2026-09-02 18:36:12 | 44.29234 | 23.24432 | 318° | 26km/h | 30074m | 6.6m/s | -42.5°C | 0.0% | 0hPa | 0V | 00:00:00 | 00:00:00 | 00:00:00 | |
| OM5KV | 2026-09-02 18:36:07 | 44.29227 | 23.24459 | 248° | 9km/h | 30036m | 7.7m/s | -42.3°C | 0.0% | 0hPa | 0V | 00:00:00 | 00:00:00 | 00:00:00 | |
| OM5KV | 2026-09-02 18:36:00 | 44.29218 | 23.24491 | 323° | 9km/h | 29980m | 8.3m/s | -42.2°C | 0.0% | 0hPa | 0V | 00:00:00 | 00:00:00 | 00:00:00 | |
| OM5KV | 2026-09-02 18:35:52 | 44.29240 | 23.24517 | 262° | 11km/h | 29919m | 6.0m/s | -42.2°C | 0.0% | 0hPa | 0V | 00:00:00 | 00:00:00 | 00:00:00 | |
| OM5KV | 2026-09-02 18:35:49 | 44.29237 | 23.24536 | 284° | 26km/h | 29893m | 7.1m/s | -42.3°C | 0.0% | 0hPa | 0V | 00:00:00 | 00:00:00 | 00:00:00 | |
| OM5KV | 2026-09-02 18:35:43 | 44.29252 | 23.24550 | 154° | 20km/h | 29852m | 6.0m/s | -42.5°C | 0.0% | 0hPa | 0V | 00:00:00 | 00:00:00 | 00:00:00 | |
| OM5KV | 2026-09-02 18:35:39 | 44.29264 | 23.24562 | 265° | 20km/h | 29821m | 8.3m/s | -42.6°C | 0.0% | 0hPa | 0V | 00:00:00 | 00:00:00 | 00:00:00 | |
| OM5KV | 2026-09-02 18:35:37 | 44.29266 | 23.24574 | 239° | 16km/h | 29805m | 6.9m/s | -42.7°C | 0.0% | 0hPa | 0V | 00:00:00 | 00:00:00 | 00:00:00 | |
| OM5KV | 2026-09-02 18:35:33 | 44.29277 | 23.24590 | 189° | 7km/h | 29774m | 8.4m/s | -42.8°C | 0.0% | 0hPa | 0V | 00:00:00 | 00:00:00 | 00:00:00 | |
| OM5KV | 2026-09-02 18:35:25 | 44.29312 | 23.24580 | 0° | 0km/h | 29713m | 7.3m/s | -42.8°C | 0.0% | 0hPa | 0V | 00:00:00 | 00:00:00 | 00:00:00 | |
| OM5KV | 2026-09-02 18:35:24 | 44.29312 | 23.24580 | 0° | 0km/h | 29705m | 8.6m/s | -42.8°C | 0.0% | 0hPa | 0V | 00:00:00 | 00:00:00 | 00:00:00 | |
| OM5KV | 2026-09-02 18:35:17 | 44.29336 | 23.24600 | 192° | 22km/h | 29654m | 6.4m/s | -42.7°C | 0.0% | 0hPa | 0V | 00:00:00 | 00:00:00 | 00:00:00 | |
| OM5KV | 2026-09-02 18:35:09 | 44.29347 | 23.24601 | 251° | 33km/h | 29594m | 7.0m/s | -42.9°C | 0.0% | 0hPa | 0V | 00:00:00 | 00:00:00 | 00:00:00 | |
| OM5KV | 2026-09-02 18:35:05 | 44.29367 | 23.24618 | 165° | 22km/h | 29563m | 6.3m/s | -43.0°C | 0.0% | 0hPa | 0V | 00:00:00 | 00:00:00 | 00:00:00 | |
| OM5KV | 2026-09-02 18:35:02 | 44.29376 | 23.24614 | 221° | 5km/h | 29542m | 6.0m/s | -43.2°C | 0.0% | 0hPa | 0V | 00:00:00 | 00:00:00 | 00:00:00 | |
| OM5KV | 2026-09-02 18:35:00 | 44.29378 | 23.24618 | 248° | 7km/h | 29524m | 9.9m/s | -43.2°C | 0.0% | 0hPa | 0V | 00:00:00 | 00:00:00 | 00:00:00 | |
| OM5KV | 2026-09-02 18:34:55 | 44.29395 | 23.24644 | 194° | 31km/h | 29490m | 5.6m/s | -43.3°C | 0.0% | 0hPa | 0V | 00:00:00 | 00:00:00 | 00:00:00 | |
| OM5KV | 2026-09-02 18:34:54 | 44.29402 | 23.24644 | 176° | 29km/h | 29482m | 8.2m/s | -43.4°C | 0.0% | 0hPa | 0V | 00:00:00 | 00:00:00 | 00:00:00 | |
| OM5KV | 2026-09-02 18:34:49 | 44.29415 | 23.24619 | 110° | 9km/h | 29445m | 8.1m/s | -43.7°C | 0.0% | 0hPa | 0V | 00:00:00 | 00:00:00 | 00:00:00 | |
| OM5KV | 2026-09-02 18:34:48 | 44.29416 | 23.24618 | 186° | 9km/h | 29438m | 6.9m/s | -43.8°C | 0.0% | 0hPa | 0V | 00:00:00 | 00:00:00 | 00:00:00 | |
| OM5KV | 2026-09-02 18:34:44 | 44.29428 | 23.24632 | 233° | 16km/h | 29408m | 6.8m/s | -44.1°C | 0.0% | 0hPa | 0V | 00:00:00 | 00:00:00 | 00:00:00 | |
| OM5KV | 2026-09-02 18:34:41 | 44.29441 | 23.24641 | 182° | 22km/h | 29385m | 6.7m/s | -44.3°C | 0.0% | 0hPa | 0V | 00:00:00 | 00:00:00 | 00:00:00 | |
| OM5KV | 2026-09-02 18:34:37 | 44.29450 | 23.24640 | 280° | 4km/h | 29358m | 6.1m/s | -44.3°C | 0.0% | 0hPa | 0V | 00:00:00 | 00:00:00 | 00:00:00 | |
| OM5KV | 2026-09-02 18:34:32 | 44.29460 | 23.24635 | 133° | 13km/h | 29323m | 7.5m/s | -44.4°C | 0.0% | 0hPa | 0V | 00:00:00 | 00:00:00 | 00:00:00 | |
| OM5KV | 2026-09-02 18:34:31 | 44.29462 | 23.24631 | 96° | 13km/h | 29315m | 8.0m/s | -44.4°C | 0.0% | 0hPa | 0V | 00:00:00 | 00:00:00 | 00:00:00 | |
| OM5KV | 2026-09-02 18:34:25 | 44.29466 | 23.24628 | 209° | 11km/h | 29272m | 8.5m/s | -44.4°C | 0.0% | 0hPa | 0V | 00:00:00 | 00:00:00 | 00:00:00 | |
| OM5KV | 2026-09-02 18:34:21 | 44.29469 | 23.24640 | 235° | 9km/h | 29243m | 8.9m/s | -44.5°C | 0.0% | 0hPa | 0V | 00:00:00 | 00:00:00 | 00:00:00 | |
| OM5KV | 2026-09-02 18:34:10 | 44.29461 | 23.24675 | 239° | 20km/h | 29170m | 6.1m/s | -44.6°C | 0.0% | 0hPa | 0V | 00:00:00 | 00:00:00 | 00:00:00 | |
| OM5KV | 2026-09-02 18:33:58 | 44.29462 | 23.24734 | 251° | 31km/h | 29086m | 4.9m/s | -44.3°C | 0.0% | 0hPa | 0V | 00:00:00 | 00:00:00 | 00:00:00 | |
| OM5KV | 2026-09-02 18:33:57 | 44.29465 | 23.24743 | 240° | 20km/h | 29081m | 5.4m/s | -44.3°C | 0.0% | 0hPa | 0V | 00:00:00 | 00:00:00 | 00:00:00 | |
| OM5KV | 2026-09-02 18:33:52 | 44.29470 | 23.24736 | 169° | 7km/h | 29042m | 6.4m/s | -44.4°C | 0.0% | 0hPa | 0V | 00:00:00 | 00:00:00 | 00:00:00 | |
| OM5KV | 2026-09-02 18:33:51 | 44.29471 | 23.24737 | 227° | 13km/h | 29036m | 5.8m/s | -44.4°C | 0.0% | 0hPa | 0V | 00:00:00 | 00:00:00 | 00:00:00 | |
| OM5KV | 2026-09-02 18:33:46 | 44.29482 | 23.24771 | 227° | 18km/h | 29004m | 7.3m/s | -44.5°C | 0.0% | 0hPa | 0V | 00:00:00 | 00:00:00 | 00:00:00 | |
| OM5KV | 2026-09-02 18:33:41 | 44.29491 | 23.24771 | 73° | 15km/h | 28969m | 8.9m/s | -44.7°C | 0.0% | 0hPa | 0V | 00:00:00 | 00:00:00 | 00:00:00 | |
| OM5KV | 2026-09-02 18:33:40 | 44.29490 | 23.24766 | 70° | 16km/h | 28964m | 5.2m/s | -44.8°C | 0.0% | 0hPa | 0V | 00:00:00 | 00:00:00 | 00:00:00 | |
| OM5KV | 2026-09-02 18:33:38 | 44.29488 | 23.24760 | 0° | 0km/h | 28955m | 6.0m/s | -44.8°C | 0.0% | 0hPa | 0V | 00:00:00 | 00:00:00 | 00:00:00 | |
| OM5KV | 2026-09-02 18:33:36 | 44.29494 | 23.24767 | 222° | 31km/h | 28937m | 8.9m/s | -44.8°C | 0.0% | 0hPa | 0V | 00:00:00 | 00:00:00 | 00:00:00 | |
| OM5KV | 2026-09-02 18:33:29 | 44.29503 | 23.24780 | 13° | 26km/h | 28891m | 5.5m/s | -44.8°C | 0.0% | 0hPa | 0V | 00:00:00 | 00:00:00 | 00:00:00 | |
| OM5KV | 2026-09-02 18:33:26 | 44.29492 | 23.24779 | 0° | 0km/h | 28876m | 7.2m/s | -44.9°C | 0.0% | 0hPa | 0V | 00:00:00 | 00:00:00 | 00:00:00 | |
| OM5KV | 2026-09-02 18:33:19 | 44.29503 | 23.24807 | 26° | 20km/h | 28832m | 9.0m/s | -45.0°C | 0.0% | 0hPa | 0V | 00:00:00 | 00:00:00 | 00:00:00 | |
| OM5KV | 2026-09-02 18:33:18 | 44.29498 | 23.24802 | 49° | 27km/h | 28824m | 7.7m/s | -45.0°C | 0.0% | 0hPa | 0V | 00:00:00 | 00:00:00 | 00:00:00 | |
| OM5KV | 2026-09-02 18:33:12 | 44.29482 | 23.24795 | 282° | 24km/h | 28786m | 5.9m/s | -45.1°C | 0.0% | 0hPa | 0V | 00:00:00 | 00:00:00 | 00:00:00 | |
| OM5KV | 2026-09-02 18:33:02 | 44.29481 | 23.24799 | 181° | 5km/h | 28719m | 6.3m/s | -45.3°C | 0.0% | 0hPa | 0V | 00:00:00 | 00:00:00 | 00:00:00 | |
| OM5KV | 2026-09-02 18:33:00 | 44.29485 | 23.24801 | 227° | 11km/h | 28705m | 7.0m/s | -45.3°C | 0.0% | 0hPa | 0V | 00:00:00 | 00:00:00 | 00:00:00 | |
| OM5KV | 2026-09-02 18:32:54 | 44.29486 | 23.24802 | 78° | 13km/h | 28666m | 6.7m/s | -45.4°C | 0.0% | 0hPa | 0V | 00:00:00 | 00:00:00 | 00:00:00 | |
| OM5KV | 2026-09-02 18:32:49 | 44.29478 | 23.24796 | 0° | 0km/h | 28631m | 4.8m/s | -45.7°C | 0.0% | 0hPa | 0V | 00:00:00 | 00:00:00 | 00:00:00 | |
| OM5KV | 2026-09-02 18:32:48 | 44.29478 | 23.24797 | 289° | 5km/h | 28626m | 5.2m/s | -45.7°C | 0.0% | 0hPa | 0V | 00:00:00 | 00:00:00 | 00:00:00 | |
| OM5KV | 2026-09-02 18:32:43 | 44.29464 | 23.24795 | 66° | 11km/h | 28590m | 7.2m/s | -45.8°C | 0.0% | 0hPa | 0V | 00:00:00 | 00:00:00 | 00:00:00 | |
| OM5KV | 2026-09-02 18:32:38 | 44.29459 | 23.24782 | 13° | 16km/h | 28557m | 7.2m/s | -45.8°C | 0.0% | 0hPa | 0V | 00:00:00 | 00:00:00 | 00:00:00 | |
| OM5KV | 2026-09-02 18:32:31 | 44.29431 | 23.24793 | 341° | 13km/h | 28511m | 5.8m/s | -45.6°C | 0.0% | 0hPa | 0V | 00:00:00 | 00:00:00 | 00:00:00 | |
| OM5KV | 2026-09-02 18:32:30 | 44.29429 | 23.24795 | 289° | 7km/h | 28502m | 8.4m/s | -45.6°C | 0.0% | 0hPa | 0V | 00:00:00 | 00:00:00 | 00:00:00 | |
| OM5KV | 2026-09-02 18:32:26 | 44.29438 | 23.24806 | 73° | 9km/h | 28468m | 7.3m/s | -45.4°C | 0.0% | 0hPa | 0V | 00:00:00 | 00:00:00 | 00:00:00 | |
| OM5KV | 2026-09-02 18:32:25 | 44.29438 | 23.24806 | 73° | 9km/h | 28468m | 7.3m/s | -45.4°C | 0.0% | 0hPa | 0V | 00:00:00 | 00:00:00 | 00:00:00 | |
| OM5KV | 2026-09-02 18:32:19 | 44.29418 | 23.24812 | 316° | 11km/h | 28426m | 5.7m/s | -45.4°C | 0.0% | 0hPa | 0V | 00:00:00 | 00:00:00 | 00:00:00 | |
| OM5KV | 2026-09-02 18:32:18 | 44.29417 | 23.24814 | 244° | 7km/h | 28422m | 4.2m/s | -45.4°C | 0.0% | 0hPa | 0V | 00:00:00 | 00:00:00 | 00:00:00 | |
| OM5KV | 2026-09-02 18:32:14 | 44.29440 | 23.24819 | 174° | 29km/h | 28393m | 3.8m/s | -45.4°C | 0.0% | 0hPa | 0V | 00:00:00 | 00:00:00 | 00:00:00 | |
| OM5KV | 2026-09-02 18:32:11 | 44.29448 | 23.24816 | 344° | 9km/h | 28371m | 7.8m/s | -45.5°C | 0.0% | 0hPa | 0V | 00:00:00 | 00:00:00 | 00:00:00 | |
| OM5KV | 2026-09-02 18:32:06 | 44.29441 | 23.24847 | 233° | 35km/h | 28339m | 7.6m/s | -45.7°C | 0.0% | 0hPa | 0V | 00:00:00 | 00:00:00 | 00:00:00 | |
| OM5KV | 2026-09-02 18:31:58 | 44.29480 | 23.24853 | 224° | 11km/h | 28283m | 5.3m/s | -45.9°C | 0.0% | 0hPa | 0V | 00:00:00 | 00:00:00 | 00:00:00 | |
| OM5KV | 2026-09-02 18:31:53 | 44.29506 | 23.24864 | 196° | 35km/h | 28247m | 7.8m/s | -45.8°C | 0.0% | 0hPa | 0V | 00:00:00 | 00:00:00 | 00:00:00 | |
| OM5KV | 2026-09-02 18:31:50 | 44.29528 | 23.24878 | 202° | 26km/h | 28227m | 5.8m/s | -45.8°C | 0.0% | 0hPa | 0V | 00:00:00 | 00:00:00 | 00:00:00 | |
| OM5KV | 2026-09-02 18:31:40 | 44.29565 | 23.24906 | 261° | 18km/h | 28145m | 7.9m/s | -45.9°C | 0.0% | 0hPa | 0V | 00:00:00 | 00:00:00 | 00:00:00 | |
| OM5KV | 2026-09-02 18:31:36 | 44.29569 | 23.24918 | 193° | 15km/h | 28124m | 9.6m/s | -45.8°C | 0.0% | 0hPa | 0V | 00:00:00 | 00:00:00 | 00:00:00 | |
| OM5KV | 2026-09-02 18:31:31 | 44.29597 | 23.24918 | 218° | 13km/h | 28089m | 7.7m/s | -45.9°C | 0.0% | 0hPa | 0V | 00:00:00 | 00:00:00 | 00:00:00 | |
| OM5KV | 2026-09-02 18:31:28 | 44.29602 | 23.24934 | 246° | 22km/h | 28067m | 6.1m/s | -46.0°C | 0.0% | 0hPa | 0V | 00:00:00 | 00:00:00 | 00:00:00 | |
| OM5KV | 2026-09-02 18:31:25 | 44.29612 | 23.24952 | 211° | 15km/h | 28046m | 7.3m/s | -45.9°C | 0.0% | 0hPa | 0V | 00:00:00 | 00:00:00 | 00:00:00 | |
| OM5KV | 2026-09-02 18:31:24 | 44.29615 | 23.24952 | 165° | 15km/h | 28039m | 6.8m/s | -45.9°C | 0.0% | 0hPa | 0V | 00:00:00 | 00:00:00 | 00:00:00 | |
| OM5KV | 2026-09-02 18:31:23 | 44.29619 | 23.24949 | 146° | 22km/h | 28032m | 7.5m/s | -45.9°C | 0.0% | 0hPa | 0V | 00:00:00 | 00:00:00 | 00:00:00 | |
| OM5KV | 2026-09-02 18:31:19 | 44.29638 | 23.24927 | 117° | 15km/h | 28001m | 8.2m/s | -45.7°C | 0.0% | 0hPa | 0V | 00:00:00 | 00:00:00 | 00:00:00 | |
| OM5KV | 2026-09-02 18:31:18 | 44.29639 | 23.24924 | 95° | 7km/h | 27994m | 6.9m/s | -45.7°C | 0.0% | 0hPa | 0V | 00:00:00 | 00:00:00 | 00:00:00 | |
| OM5KV | 2026-09-02 18:31:13 | 44.29651 | 23.24935 | 208° | 18km/h | 27957m | 7.4m/s | -45.7°C | 0.0% | 0hPa | 0V | 00:00:00 | 00:00:00 | 00:00:00 | |
| OM5KV | 2026-09-02 18:30:58 | 44.29676 | 23.24902 | 102° | 9km/h | 27851m | 7.9m/s | -45.7°C | 0.0% | 0hPa | 0V | 00:00:00 | 00:00:00 | 00:00:00 | |
| OM5KV | 2026-09-02 18:30:55 | 44.29676 | 23.24883 | 87° | 18km/h | 27832m | 5.3m/s | -45.8°C | 0.0% | 0hPa | 0V | 00:00:00 | 00:00:00 | 00:00:00 | |
| OM5KV | 2026-09-02 18:30:53 | 44.29676 | 23.24875 | 143° | 5km/h | 27816m | 7.0m/s | -46.1°C | 0.0% | 0hPa | 0V | 00:00:00 | 00:00:00 | 00:00:00 | |
| OM5KV | 2026-09-02 18:30:48 | 44.29677 | 23.24874 | 336° | 5km/h | 27779m | 9.2m/s | -46.6°C | 0.0% | 0hPa | 0V | 00:00:00 | 00:00:00 | 00:00:00 | |
| OM5KV | 2026-09-02 18:30:42 | 44.29667 | 23.24875 | 309° | 9km/h | 27740m | 4.7m/s | -47.0°C | 0.0% | 0hPa | 0V | 00:00:00 | 00:00:00 | 00:00:00 | |
| OM5KV | 2026-09-02 18:30:37 | 44.29679 | 23.24883 | 176° | 11km/h | 27698m | 7.1m/s | -47.3°C | 0.0% | 0hPa | 0V | 00:00:00 | 00:00:00 | 00:00:00 | |
| OM5KV | 2026-09-02 18:30:35 | 44.29684 | 23.24879 | 129° | 13km/h | 27684m | 9.0m/s | -47.3°C | 0.0% | 0hPa | 0V | 00:00:00 | 00:00:00 | 00:00:00 | |
| OM5KV | 2026-09-02 18:30:28 | 44.29689 | 23.24858 | 128° | 16km/h | 27634m | 7.4m/s | -47.5°C | 0.0% | 0hPa | 0V | 00:00:00 | 00:00:00 | 00:00:00 | |
| OM5KV | 2026-09-02 18:30:24 | 44.29703 | 23.24846 | 184° | 16km/h | 27607m | 6.1m/s | -47.5°C | 0.0% | 0hPa | 0V | 00:00:00 | 00:00:00 | 00:00:00 | |
| OM5KV | 2026-09-02 18:30:15 | 44.29706 | 23.24844 | 73° | 11km/h | 27542m | 7.4m/s | -47.8°C | 0.0% | 0hPa | 0V | 00:00:00 | 00:00:00 | 00:00:00 | |
| OM5KV | 2026-09-02 18:30:12 | 44.29708 | 23.24831 | 141° | 9km/h | 27522m | 9.5m/s | -47.9°C | 0.0% | 0hPa | 0V | 00:00:00 | 00:00:00 | 00:00:00 | |
| OM5KV | 2026-09-02 18:30:10 | 44.29710 | 23.24833 | 257° | 7km/h | 27510m | 6.2m/s | -47.9°C | 0.0% | 0hPa | 0V | 00:00:00 | 00:00:00 | 00:00:00 | |
| OM5KV | 2026-09-02 18:30:08 | 44.29710 | 23.24836 | 359° | 4km/h | 27494m | 6.3m/s | -48.0°C | 0.0% | 0hPa | 0V | 00:00:00 | 00:00:00 | 00:00:00 | |
| OM5KV | 2026-09-02 18:30:02 | 44.29700 | 23.24843 | 0° | 0km/h | 27451m | 6.5m/s | -48.0°C | 0.0% | 0hPa | 0V | 00:00:00 | 00:00:00 | 00:00:00 | |
| OM5KV | 2026-09-02 18:30:01 | 44.29700 | 23.24843 | 303° | 2km/h | 27444m | 6.1m/s | -48.0°C | 0.0% | 0hPa | 0V | 00:00:00 | 00:00:00 | 00:00:00 | |
| OM5KV | 2026-09-02 18:29:56 | 44.29688 | 23.24862 | 306° | 11km/h | 27409m | 8.2m/s | -47.9°C | 0.0% | 0hPa | 0V | 00:00:00 | 00:00:00 | 00:00:00 | |
| OM5KV | 2026-09-02 18:29:55 | 44.29688 | 23.24864 | 201° | 4km/h | 27402m | 7.3m/s | -47.9°C | 0.0% | 0hPa | 0V | 00:00:00 | 00:00:00 | 00:00:00 | |
| OM5KV | 2026-09-02 18:29:50 | 44.29693 | 23.24856 | 33° | 7km/h | 27367m | 7.2m/s | -47.9°C | 0.0% | 0hPa | 0V | 00:00:00 | 00:00:00 | 00:00:00 | |
| OM5KV | 2026-09-02 18:29:48 | 44.29692 | 23.24857 | 283° | 7km/h | 27352m | 7.3m/s | -47.9°C | 0.0% | 0hPa | 0V | 00:00:00 | 00:00:00 | 00:00:00 | |
| OM5KV | 2026-09-02 18:29:43 | 44.29688 | 23.24862 | 140° | 5km/h | 27318m | 7.4m/s | -48.1°C | 0.0% | 0hPa | 0V | 00:00:00 | 00:00:00 | 00:00:00 | |
| OM5KV | 2026-09-02 18:29:38 | 44.29695 | 23.24852 | 64° | 11km/h | 27284m | 6.4m/s | -48.1°C | 0.0% | 0hPa | 0V | 00:00:00 | 00:00:00 | 00:00:00 | |
| OM5KV | 2026-09-02 18:29:10 | 44.29753 | 23.24766 | 92° | 15km/h | 27096m | 7.3m/s | -47.8°C | 0.0% | 0hPa | 0V | 00:00:00 | 00:00:00 | 00:00:00 | |
| OM5KV | 2026-09-02 18:29:03 | 44.29775 | 23.24735 | 145° | 22km/h | 27049m | 6.2m/s | -47.9°C | 0.0% | 0hPa | 0V | 00:00:00 | 00:00:00 | 00:00:00 | |
| OM5KV | 2026-09-02 18:28:44 | 44.29803 | 23.24629 | 100° | 20km/h | 26921m | 6.1m/s | -47.4°C | 0.0% | 0hPa | 0V | 00:00:00 | 00:00:00 | 00:00:00 | |
| OM5KV | 2026-09-02 18:28:41 | 44.29808 | 23.24611 | 109° | 15km/h | 26903m | 7.1m/s | -47.3°C | 0.0% | 0hPa | 0V | 00:00:00 | 00:00:00 | 00:00:00 | |
| OM5KV | 2026-09-02 18:28:29 | 44.29816 | 23.24531 | 65° | 15km/h | 26822m | 6.7m/s | -47.3°C | 0.0% | 0hPa | 0V | 00:00:00 | 00:00:00 | 00:00:00 | |
| OM5KV | 2026-09-02 18:28:23 | 44.29802 | 23.24507 | 66° | 26km/h | 26782m | 6.9m/s | -47.3°C | 0.0% | 0hPa | 0V | 00:00:00 | 00:00:00 | 00:00:00 | |
| OM5KV | 2026-09-02 18:28:10 | 44.29787 | 23.24449 | 85° | 26km/h | 26695m | 3.5m/s | -48.2°C | 0.0% | 0hPa | 0V | 00:00:00 | 00:00:00 | 00:00:00 | |
| OM5KV | 2026-09-02 18:28:05 | 44.29772 | 23.24427 | 17° | 20km/h | 26657m | 10.0m/s | -48.3°C | 0.0% | 0hPa | 0V | 00:00:00 | 00:00:00 | 00:00:00 | |
| OM5KV | 2026-09-02 18:28:04 | 44.29767 | 23.24424 | 24° | 26km/h | 26652m | 5.3m/s | -48.3°C | 0.0% | 0hPa | 0V | 00:00:00 | 00:00:00 | 00:00:00 | |
| OM5KV | 2026-09-02 18:27:57 | 44.29732 | 23.24408 | 55° | 15km/h | 26604m | 5.8m/s | -48.5°C | 0.0% | 0hPa | 0V | 00:00:00 | 00:00:00 | 00:00:00 | |
| OM5KV | 2026-09-02 18:27:52 | 44.29708 | 23.24401 | 338° | 20km/h | 26568m | 6.4m/s | -48.4°C | 0.0% | 0hPa | 0V | 00:00:00 | 00:00:00 | 00:00:00 | |
| OM5KV | 2026-09-02 18:27:49 | 44.29692 | 23.24412 | 340° | 26km/h | 26549m | 8.1m/s | -48.3°C | 0.0% | 0hPa | 0V | 00:00:00 | 00:00:00 | 00:00:00 | |
| OM5KV | 2026-09-02 18:27:46 | 44.29676 | 23.24414 | 17° | 13km/h | 26530m | 7.7m/s | -48.2°C | 0.0% | 0hPa | 0V | 00:00:00 | 00:00:00 | 00:00:00 | |
| OM5KV | 2026-09-02 18:27:39 | 44.29666 | 23.24426 | 342° | 16km/h | 26482m | 8.3m/s | -48.2°C | 0.0% | 0hPa | 0V | 00:00:00 | 00:00:00 | 00:00:00 | |
| OM5KV | 2026-09-02 18:27:38 | 44.29663 | 23.24428 | 333° | 15km/h | 26474m | 6.8m/s | -48.2°C | 0.0% | 0hPa | 0V | 00:00:00 | 00:00:00 | 00:00:00 | |
| OM5KV | 2026-09-02 18:27:33 | 44.29649 | 23.24446 | 259° | 9km/h | 26441m | 8.0m/s | -48.2°C | 0.0% | 0hPa | 0V | 00:00:00 | 00:00:00 | 00:00:00 | |
| OM5KV | 2026-09-02 18:27:31 | 44.29653 | 23.24450 | 198° | 7km/h | 26426m | 6.4m/s | -48.2°C | 0.0% | 0hPa | 0V | 00:00:00 | 00:00:00 | 00:00:00 | |
| OM5KV | 2026-09-02 18:27:28 | 44.29650 | 23.24452 | 341° | 13km/h | 26406m | 6.1m/s | -48.1°C | 0.0% | 0hPa | 0V | 00:00:00 | 00:00:00 | 00:00:00 | |
| OM5KV | 2026-09-02 18:27:22 | 44.29626 | 23.24483 | 300° | 27km/h | 26368m | 4.2m/s | -48.3°C | 0.0% | 0hPa | 0V | 00:00:00 | 00:00:00 | 00:00:00 | |
| OM5KV | 2026-09-02 18:27:16 | 44.29637 | 23.24514 | 259° | 18km/h | 26329m | 7.5m/s | -48.4°C | 0.0% | 0hPa | 0V | 00:00:00 | 00:00:00 | 00:00:00 | |
| OM5KV | 2026-09-02 18:27:07 | 44.29610 | 23.24552 | 203° | 16km/h | 26263m | 8.3m/s | -48.6°C | 0.0% | 0hPa | 0V | 00:00:00 | 00:00:00 | 00:00:00 | |
| OM5KV | 2026-09-02 18:27:06 | 44.29614 | 23.24553 | 179° | 16km/h | 26255m | 7.7m/s | -48.6°C | 0.0% | 0hPa | 0V | 00:00:00 | 00:00:00 | 00:00:00 | |
| OM5KV | 2026-09-02 18:27:00 | 44.29602 | 23.24560 | 331° | 31km/h | 26217m | 6.0m/s | -48.8°C | 0.0% | 0hPa | 0V | 00:00:00 | 00:00:00 | 00:00:00 | |
| OM5KV | 2026-09-02 18:26:54 | 44.29580 | 23.24564 | 0° | 0km/h | 26174m | 4.2m/s | -48.6°C | 0.0% | 0hPa | 0V | 00:00:00 | 00:00:00 | 00:00:00 | |
| OM5KV | 2026-09-02 18:26:27 | 44.29599 | 23.24681 | 245° | 22km/h | 25982m | 5.0m/s | -48.8°C | 0.0% | 0hPa | 0V | 00:00:00 | 00:00:00 | 00:00:00 | |
| OM5KV | 2026-09-02 18:25:25 | 44.29734 | 23.24917 | 246° | 27km/h | 25561m | 8.6m/s | -49.9°C | 0.0% | 0hPa | 0V | 00:00:00 | 00:00:00 | 00:00:00 | |
| OM5KV | 2026-09-02 18:25:21 | 44.29732 | 23.24966 | 282° | 27km/h | 25531m | 8.9m/s | -50.1°C | 0.0% | 0hPa | 0V | 00:00:00 | 00:00:00 | 00:00:00 | |
| OM5KV | 2026-09-02 18:25:08 | 44.29782 | 23.25071 | 206° | 16km/h | 25446m | 4.2m/s | -50.1°C | 0.0% | 0hPa | 0V | 00:00:00 | 00:00:00 | 00:00:00 | |
| OM5KV | 2026-09-02 18:25:07 | 44.29787 | 23.25074 | 204° | 18km/h | 25439m | 7.4m/s | -50.1°C | 0.0% | 0hPa | 0V | 00:00:00 | 00:00:00 | 00:00:00 | |
| OM5KV | 2026-09-02 18:24:58 | 44.29830 | 23.25135 | 221° | 24km/h | 25378m | 7.9m/s | -50.1°C | 0.0% | 0hPa | 0V | 00:00:00 | 00:00:00 | 00:00:00 | |
| OM5KV | 2026-09-02 18:24:49 | 44.29897 | 23.25156 | 223° | 24km/h | 25317m | 7.6m/s | -50.4°C | 0.0% | 0hPa | 0V | 00:00:00 | 00:00:00 | 00:00:00 | |
| OM5KV | 2026-09-02 18:24:45 | 44.29910 | 23.25178 | 192° | 15km/h | 25292m | 5.9m/s | -50.4°C | 0.0% | 0hPa | 0V | 00:00:00 | 00:00:00 | 00:00:00 | |
| OM5KV | 2026-09-02 18:24:39 | 44.29955 | 23.25174 | 172° | 26km/h | 25251m | 5.3m/s | -50.4°C | 0.0% | 0hPa | 0V | 00:00:00 | 00:00:00 | 00:00:00 | |
| OM5KV | 2026-09-02 18:24:37 | 44.29967 | 23.25172 | 174° | 22km/h | 25238m | 8.3m/s | -50.4°C | 0.0% | 0hPa | 0V | 00:00:00 | 00:00:00 | 00:00:00 | |
| OM5KV | 2026-09-02 18:24:32 | 44.29987 | 23.25168 | 160° | 7km/h | 25206m | 5.9m/s | -50.4°C | 0.0% | 0hPa | 0V | 00:00:00 | 00:00:00 | 00:00:00 | |
| OM5KV | 2026-09-02 18:24:28 | 44.30006 | 23.25162 | 156° | 33km/h | 25181m | 5.8m/s | -50.5°C | 0.0% | 0hPa | 0V | 00:00:00 | 00:00:00 | 00:00:00 | |
| OM5KV | 2026-09-02 18:24:27 | 44.30013 | 23.25156 | 146° | 31km/h | 25174m | 7.4m/s | -50.5°C | 0.0% | 0hPa | 0V | 00:00:00 | 00:00:00 | 00:00:00 | |
| OM5KV | 2026-09-02 18:24:17 | 44.30043 | 23.25136 | 157° | 27km/h | 25108m | 4.9m/s | -50.8°C | 0.0% | 0hPa | 0V | 00:00:00 | 00:00:00 | 00:00:00 | |
| OM5KV | 2026-09-02 18:24:14 | 44.30056 | 23.25112 | 96° | 29km/h | 25087m | 7.2m/s | -50.8°C | 0.0% | 0hPa | 0V | 00:00:00 | 00:00:00 | 00:00:00 | |
| OM5KV | 2026-09-02 18:24:12 | 44.30054 | 23.25092 | 75° | 24km/h | 25076m | 4.7m/s | -50.8°C | 0.0% | 0hPa | 0V | 00:00:00 | 00:00:00 | 00:00:00 | |
| OM5KV | 2026-09-02 18:24:11 | 44.30053 | 23.25086 | 84° | 15km/h | 25070m | 6.6m/s | -50.8°C | 0.0% | 0hPa | 0V | 00:00:00 | 00:00:00 | 00:00:00 | |
| OM5KV | 2026-09-02 18:24:08 | 44.30057 | 23.25080 | 201° | 5km/h | 25049m | 8.3m/s | -50.7°C | 0.0% | 0hPa | 0V | 00:00:00 | 00:00:00 | 00:00:00 | |
| OM5KV | 2026-09-02 18:24:05 | 44.30061 | 23.25079 | 137° | 13km/h | 25034m | 5.3m/s | -50.6°C | 0.0% | 0hPa | 0V | 00:00:00 | 00:00:00 | 00:00:00 | |
| OM5KV | 2026-09-02 18:23:55 | 44.30088 | 23.25043 | 177° | 20km/h | 24970m | 6.5m/s | -50.7°C | 0.0% | 0hPa | 0V | 00:00:00 | 00:00:00 | 00:00:00 | |
| OM5KV | 2026-09-02 18:23:54 | 44.30092 | 23.25041 | 161° | 16km/h | 24963m | 7.0m/s | -50.7°C | 0.0% | 0hPa | 0V | 00:00:00 | 00:00:00 | 00:00:00 | |
| OM5KV | 2026-09-02 18:23:48 | 44.30097 | 23.25011 | 251° | 2km/h | 24923m | 7.6m/s | -50.7°C | 0.0% | 0hPa | 0V | 00:00:00 | 00:00:00 | 00:00:00 | |
| OM5KV | 2026-09-02 18:23:41 | 44.30125 | 23.25016 | 138° | 22km/h | 24878m | 5.4m/s | -50.8°C | 0.0% | 0hPa | 0V | 00:00:00 | 00:00:00 | 00:00:00 | |
| OM5KV | 2026-09-02 18:23:35 | 44.30122 | 23.25001 | 234° | 11km/h | 24839m | 7.1m/s | -51.0°C | 0.0% | 0hPa | 0V | 00:00:00 | 00:00:00 | 00:00:00 | |
| OM5KV | 2026-09-02 18:23:29 | 44.30147 | 23.24997 | 143° | 13km/h | 24800m | 6.2m/s | -51.4°C | 0.0% | 0hPa | 0V | 00:00:00 | 00:00:00 | 00:00:00 | |
| OM5KV | 2026-09-02 18:23:21 | 44.30154 | 23.24990 | 190° | 15km/h | 24748m | 7.8m/s | -51.6°C | 0.0% | 0hPa | 0V | 00:00:00 | 00:00:00 | 00:00:00 | |
| OM5KV | 2026-09-02 18:23:19 | 44.30162 | 23.24989 | 172° | 15km/h | 24735m | 7.1m/s | -51.6°C | 0.0% | 0hPa | 0V | 00:00:00 | 00:00:00 | 00:00:00 | |
| OM5KV | 2026-09-02 18:23:13 | 44.30163 | 23.24980 | 352° | 5km/h | 24695m | 7.7m/s | -51.7°C | 0.0% | 0hPa | 0V | 00:00:00 | 00:00:00 | 00:00:00 | |
| OM5KV | 2026-09-02 18:23:06 | 44.30190 | 23.24990 | 185° | 20km/h | 24653m | 6.8m/s | -51.8°C | 0.0% | 0hPa | 0V | 00:00:00 | 00:00:00 | 00:00:00 | |
| OM5KV | 2026-09-02 18:23:01 | 44.30195 | 23.24988 | 75° | 9km/h | 24620m | 4.9m/s | -52.0°C | 0.0% | 0hPa | 0V | 00:00:00 | 00:00:00 | 00:00:00 | |
| OM5KV | 2026-09-02 18:22:53 | 44.30218 | 23.24986 | 209° | 18km/h | 24566m | 5.3m/s | -52.1°C | 0.0% | 0hPa | 0V | 00:00:00 | 00:00:00 | 00:00:00 | |
| OM5KV | 2026-09-02 18:22:28 | 44.30282 | 23.24978 | 330° | 11km/h | 24403m | 8.3m/s | -52.2°C | 0.0% | 0hPa | 0V | 00:00:00 | 00:00:00 | 00:00:00 | |
| LZ4TU-5 | 2026-09-02 18:11:15 | 44.30931 | 23.22962 | 94° | 31km/h | 20137m | 6.6m/s | -55.5°C | 0.0% | 0hPa | 0V | 00:00:00 | 00:00:00 | 00:00:00 | |
| LZ4TU-5 | 2026-09-02 18:11:10 | 44.30921 | 23.22920 | 55° | 26km/h | 20107m | 6.1m/s | -55.4°C | 0% | 0hPa | 0V | 00:00:00 | 00:00:00 | 00:00:00 | |
| LZ4TU-5 | 2026-09-02 17:55:01 | 44.28869 | 23.08208 | 72° | 73km/h | 14448m | 3.7m/s | -56.4°C | 0.0% | 0hPa | 0V | 00:00:00 | 00:00:00 | 00:00:00 | |
| LZ4TU-5 | 2026-09-02 17:54:56 | 44.28842 | 23.08061 | 80° | 89km/h | 14420m | 5.8m/s | -56.2°C | 0.0% | 0hPa | 0V | 00:00:00 | 00:00:00 | 00:00:00 | |
| LZ4TU-5 | 2026-09-02 17:49:08 | 44.26314 | 22.95885 | 73° | 102km/h | 12376m | 10.9m/s | -55.8°C | 23.9% | 0hPa | 0V | 00:00:00 | 00:00:00 | 00:00:00 | |
| LZ4TU-5 | 2026-09-02 17:49:04 | 44.26282 | 22.95721 | 77° | 137km/h | 12350m | 8.6m/s | -56.0°C | 24.7% | 0hPa | 0V | 00:00:00 | 00:00:00 | 00:00:00 | |
| LZ4TU-5 | 2026-09-02 17:47:21 | 44.25404 | 22.91244 | 83° | 108km/h | 11718m | 4.7m/s | -55.3°C | 37.5% | 0hPa | 0V | 00:00:00 | 00:00:00 | 00:00:00 | |
| LZ4TU-5 | 2026-09-02 17:47:16 | 44.25355 | 22.91072 | 65° | 115km/h | 11688m | 6.8m/s | -55.2°C | 37.6% | 0hPa | 0V | 00:00:00 | 00:00:00 | 00:00:00 | |
| LZ4TU-5 | 2026-09-02 17:46:01 | 44.24797 | 22.88384 | 70° | 99km/h | 11164m | 5.7m/s | -51.8°C | 39.8% | 0hPa | 0V | 00:00:00 | 00:00:00 | 00:00:00 | |
| LZ4TU-5 | 2026-09-02 17:45:56 | 44.24756 | 22.88214 | 77° | 99km/h | 11129m | 8.0m/s | -51.5°C | 40.0% | 0hPa | 0V | 00:00:00 | 00:00:00 | 00:00:00 | |
| LZ4TU-5 | 2026-09-02 17:44:43 | 44.24321 | 22.85806 | 81° | 86km/h | 10673m | 4.4m/s | -48.0°C | 34.1% | 0hPa | 0V | 00:00:00 | 00:00:00 | 00:00:00 | |
| LZ4TU-5 | 2026-09-02 17:44:38 | 44.24299 | 22.85642 | 82° | 106km/h | 10645m | 6.0m/s | -47.9°C | 33.2% | 0hPa | 0V | 00:00:00 | 00:00:00 | 00:00:00 | |
| LZ4TU-5 | 2026-09-02 17:43:04 | 44.23692 | 22.82142 | 73° | 89km/h | 10116m | 4.1m/s | -44.1°C | 33.9% | 0hPa | 0V | 00:00:00 | 00:00:00 | 00:00:00 | |
| LZ4TU-5 | 2026-09-02 17:42:59 | 44.23645 | 22.81961 | 74° | 126km/h | 10088m | 7.2m/s | -44.0°C | 35.3% | 0hPa | 0V | 00:00:00 | 00:00:00 | 00:00:00 | |
| LZ4TU-5 | 2026-09-02 17:26:53 | 44.21294 | 22.58014 | 66° | 26km/h | 4317m | 4.2m/s | -1.4°C | 9.7% | 0hPa | 0V | 00:00:00 | 00:00:00 | 00:00:00 | |
| LZ4TU-5 | 2026-09-02 17:26:48 | 44.21301 | 22.57949 | 119° | 58km/h | 4285m | 5.9m/s | -1.1°C | 9.5% | 0hPa | 0V | 00:00:00 | 00:00:00 | 00:00:00 | |
| LZ4TU-5 | 2026-09-02 17:25:45 | 44.21358 | 22.57253 | 129° | 35km/h | 3904m | 7.6m/s | -1.7°C | 39.3% | 0hPa | 0V | 00:00:00 | 00:00:00 | 00:00:00 | |
| LZ4TU-5 | 2026-09-02 17:25:40 | 44.21361 | 22.57229 | 66° | 15km/h | 3876m | 5.3m/s | -1.5°C | 0% | 0hPa | 0V | 00:00:00 | 00:00:00 | 00:00:00 | |
| LZ4TU-5 | 2026-09-02 17:24:39 | 44.21519 | 22.56586 | 100° | 57km/h | 3498m | 5.2m/s | 1.3°C | 64.5% | 0hPa | 0V | 00:00:00 | 00:00:00 | 00:00:00 | |
| LZ4TU-5 | 2026-09-02 17:24:34 | 44.21522 | 22.56493 | 83° | 37km/h | 3473m | 5.1m/s | 1.5°C | 66.4% | 0hPa | 0V | 00:00:00 | 00:00:00 | 00:00:00 | |
| LZ4TU-5 | 2026-09-02 17:23:32 | 44.21679 | 22.55790 | 82° | 42km/h | 3099m | 4.9m/s | 4.4°C | 70.0% | 0hPa | 0V | 00:00:00 | 00:00:00 | 00:00:00 | |
| LZ4TU-5 | 2026-09-02 17:23:27 | 44.21684 | 22.55741 | 130° | 35km/h | 3070m | 7.1m/s | 4.7°C | 0% | 0hPa | 0V | 00:00:00 | 00:00:00 | 00:00:00 | |
| LZ4TU-5 | 2026-09-02 17:22:25 | 44.21939 | 22.55116 | 168° | 38km/h | 2688m | 5.1m/s | 8.2°C | 49.0% | 0hPa | 0V | 00:00:00 | 00:00:00 | 00:00:00 | |
| LZ4TU-5 | 2026-09-02 17:22:20 | 44.21989 | 22.55070 | 126° | 46km/h | 2662m | 5.2m/s | 8.5°C | 40.4% | 0hPa | 0V | 00:00:00 | 00:00:00 | 00:00:00 | |
| LZ4TU-5 | 2026-09-02 17:21:18 | 44.22319 | 22.54739 | 193° | 27km/h | 2294m | 8.3m/s | 11.6°C | 29.3% | 0hPa | 0V | 00:00:00 | 00:00:00 | 00:00:00 | |
| LZ4TU-5 | 2026-09-02 17:21:14 | 44.22342 | 22.54749 | 177° | 20km/h | 2273m | 6.5m/s | 11.8°C | 29.0% | 0hPa | 0V | 00:00:00 | 00:00:00 | 00:00:00 | |
| LZ4TU-5 | 2026-09-02 17:20:13 | 44.22578 | 22.54556 | 149° | 22km/h | 1936m | 6.3m/s | 14.3°C | 33.2% | 0hPa | 0V | 00:00:00 | 00:00:00 | 00:00:00 | |
| LZ4TU-5 | 2026-09-02 17:20:08 | 44.22590 | 22.54533 | 47° | 4km/h | 1906m | 5.7m/s | 14.5°C | 33.9% | 0hPa | 0V | 00:00:00 | 00:00:00 | 00:00:00 | |
| LZ4TU-5 | 2026-09-02 17:19:06 | 44.22729 | 22.54401 | 180° | 31km/h | 1544m | 5.0m/s | 17.8°C | 30.1% | 0hPa | 0V | 00:00:00 | 00:00:00 | 00:00:00 | |
| LZ4TU-5 | 2026-09-02 17:19:00 | 44.22755 | 22.54376 | 135° | 22km/h | 1508m | 8.0m/s | 18.2°C | 29.6% | 0hPa | 0V | 00:00:00 | 00:00:00 | 00:00:00 | |
| LZ4TU-5 | 2026-09-02 17:18:56 | 44.22764 | 22.54369 | 194° | 22km/h | 1484m | 5.5m/s | 18.3°C | 30.1% | 0hPa | 0V | 00:00:00 | 00:00:00 | 00:00:00 | |
| LZ4TU-5 | 2026-09-02 17:18:48 | 44.22791 | 22.54325 | 122° | 31km/h | 1435m | 5.4m/s | 18.8°C | 29.9% | 0hPa | 0V | 00:00:00 | 00:00:00 | 00:00:00 | |
| LZ4TU-5 | 2026-09-02 17:18:43 | 44.22810 | 22.54311 | 180° | 11km/h | 1401m | 7.0m/s | 19.1°C | 0% | 0hPa | 0V | 00:00:00 | 00:00:00 | 00:00:00 |